createdAt,value
2022-12-18T00:00:42.533Z,99564.84
2022-12-18T00:05:34.324Z,99578.50
2022-12-18T00:10:26.003Z,99591.34
2022-12-18T00:15:17.847Z,99586.63
2022-12-18T00:20:10.294Z,99579.09
2022-12-18T00:25:02.108Z,99584.22
2022-12-18T00:29:53.764Z,99574.63
2022-12-18T00:34:45.396Z,99568.38
2022-12-18T00:39:37.051Z,99568.00
2022-12-18T00:44:28.653Z,99569.44
2022-12-18T00:49:21.228Z,99565.75
2022-12-18T00:54:13.073Z,99561.19
2022-12-18T00:59:05.266Z,99555.59
2022-12-18T01:03:58.260Z,99552.72
2022-12-18T01:08:49.856Z,99555.00
2022-12-18T01:13:41.961Z,99550.28
2022-12-18T01:18:34.092Z,99541.88
2022-12-18T01:23:26.171Z,99537.88
2022-12-18T01:28:18.035Z,99527.50
2022-12-18T01:33:09.635Z,99528.50
2022-12-18T01:38:01.343Z,99520.50
2022-12-18T01:42:53.755Z,99522.50
2022-12-18T01:47:56.215Z,99530.47
2022-12-18T01:52:51.040Z,99531.47
2022-12-18T01:57:43.255Z,99533.59
2022-12-18T02:02:35.056Z,99528.72
2022-12-18T02:07:41.633Z,99545.00
2022-12-18T02:12:57.708Z,99552.88
2022-12-18T02:17:55.871Z,99550.97
2022-12-18T02:23:19.891Z,99549.91
2022-12-18T02:28:16.431Z,99563.94
2022-12-18T02:33:11.033Z,99553.59
2022-12-18T02:38:05.158Z,99559.22
2022-12-18T02:43:03.085Z,99559.66
2022-12-18T02:47:54.936Z,99563.72
2022-12-18T02:52:52.430Z,99550.72
2022-12-18T02:57:51.728Z,99539.53
2022-12-18T03:02:47.453Z,99541.63
2022-12-18T03:07:57.932Z,99526.81
2022-12-18T03:12:56.408Z,99519.94
2022-12-18T03:17:56.072Z,99494.47
2022-12-18T03:22:52.991Z,99469.16
2022-12-18T03:27:50.074Z,99467.78
2022-12-18T03:32:49.608Z,99470.72
2022-12-18T03:37:41.384Z,99485.16
2022-12-18T03:42:50.516Z,99462.50
2022-12-18T03:47:59.287Z,99468.66
2022-12-18T03:53:09.989Z,99454.53
2022-12-18T03:58:04.624Z,99450.84
2022-12-18T04:02:59.271Z,99432.09
2022-12-18T04:07:52.983Z,99417.97
2022-12-18T04:12:45.291Z,99408.31
2022-12-18T04:17:37.025Z,99396.84
2022-12-18T04:22:28.963Z,99388.19
2022-12-18T04:27:20.607Z,99375.19
2022-12-18T04:32:12.410Z,99379.63
2022-12-18T04:37:04.090Z,99361.88
2022-12-18T04:41:55.767Z,99348.44
2022-12-18T04:46:47.734Z,99322.38
2022-12-18T04:51:40.186Z,99308.91
2022-12-18T04:56:33.162Z,99309.75
2022-12-18T05:01:34.795Z,99303.59
2022-12-18T05:06:26.908Z,99292.81
2022-12-18T05:11:18.947Z,99299.97
2022-12-18T05:16:11.254Z,99297.44
2022-12-18T05:21:03.833Z,99294.22
2022-12-18T05:25:58.249Z,99312.03
2022-12-18T05:30:54.030Z,99309.38
2022-12-18T05:35:45.996Z,99320.69
2022-12-18T05:40:37.865Z,99318.72
2022-12-18T05:45:29.440Z,99303.28
2022-12-18T05:50:20.983Z,99291.53
2022-12-18T05:55:12.606Z,99266.44
2022-12-18T06:00:05.331Z,99253.81
2022-12-18T06:04:56.964Z,99255.63
2022-12-18T06:09:48.560Z,99258.44
2022-12-18T06:14:40.168Z,99261.25
2022-12-18T06:19:31.708Z,99271.06
2022-12-18T06:24:23.268Z,99269.38
2022-12-18T06:29:14.906Z,99272.75
2022-12-18T06:34:06.609Z,99259.44
2022-12-18T06:38:58.688Z,99245.84
2022-12-18T06:43:50.523Z,99243.72
2022-12-18T06:48:42.480Z,99248.06
2022-12-18T06:53:34.506Z,99228.41
2022-12-18T06:58:26.112Z,99225.59
2022-12-18T07:03:17.763Z,99219.31
2022-12-18T07:08:09.370Z,99213.97
2022-12-18T07:13:01.787Z,99198.03
2022-12-18T07:17:53.512Z,99228.09
2022-12-18T07:22:45.075Z,99214.66
2022-12-18T07:27:36.756Z,99218.00
2022-12-18T07:32:28.427Z,99220.53
2022-12-18T07:37:20.198Z,99232.00
2022-12-18T07:42:30.799Z,99231.16
2022-12-18T07:47:22.449Z,99221.34
2022-12-18T07:52:14.047Z,99236.34
2022-12-18T07:57:16.447Z,99235.31
2022-12-18T08:02:17.456Z,99245.97
2022-12-18T08:07:09.224Z,99231.84
2022-12-18T08:12:00.880Z,99246.97
2022-12-18T08:16:52.891Z,99224.69
2022-12-18T08:21:44.678Z,99216.69
2022-12-18T08:26:36.270Z,99209.56
2022-12-18T08:31:29.850Z,99201.44
2022-12-18T08:36:22.532Z,99209.25
2022-12-18T08:41:16.775Z,99179.84
2022-12-18T08:46:08.793Z,99148.56
2022-12-18T08:51:00.918Z,99165.53
2022-12-18T08:55:53.074Z,99112.44
2022-12-18T09:00:44.715Z,99117.78
2022-12-18T09:05:36.555Z,99111.16
2022-12-18T09:10:28.171Z,99073.91
2022-12-18T09:15:19.921Z,99076.41
2022-12-18T09:20:12.781Z,99078.09
2022-12-18T09:25:05.335Z,99063.44
2022-12-18T09:29:56.967Z,99047.16
2022-12-18T09:34:48.637Z,99037.38
2022-12-18T09:39:41.178Z,99028.41
2022-12-18T09:44:47.572Z,99027.22
2022-12-18T09:49:45.540Z,99023.44
2022-12-18T09:54:40.964Z,99008.13
2022-12-18T09:59:40.250Z,99006.47
2022-12-18T10:04:33.372Z,98987.34
2022-12-18T10:09:38.615Z,98973.56
2022-12-18T10:15:05.710Z,98950.44
2022-12-18T10:20:07.755Z,98944.28
2022-12-18T10:25:06.869Z,98949.94
2022-12-18T10:29:59.143Z,98939.44
2022-12-18T10:35:00.190Z,98933.44
2022-12-18T10:40:10.487Z,98903.47
2022-12-18T10:45:09.357Z,98913.44
2022-12-18T10:50:01.065Z,98895.13
2022-12-18T10:55:05.131Z,98893.59
2022-12-18T10:59:59.071Z,98889.44
2022-12-18T11:04:52.857Z,98885.41
2022-12-18T11:09:44.538Z,98876.72
2022-12-18T11:14:57.099Z,98858.06
2022-12-18T11:19:57.124Z,98846.72
2022-12-18T11:25:30.211Z,98838.84
2022-12-18T11:30:22.290Z,98839.81
2022-12-18T11:35:18.951Z,98833.97
2022-12-18T11:40:19.693Z,98821.09
2022-12-18T11:45:14.220Z,98813.56
2022-12-18T11:50:17.671Z,98785.88
2022-12-18T11:55:44.813Z,98775.84
2022-12-18T12:00:49.572Z,98766.22
2022-12-18T12:06:05.873Z,98745.69
2022-12-18T12:11:06.064Z,98732.19
2022-12-18T12:16:16.532Z,98717.66
2022-12-18T12:21:14.447Z,98709.31
2022-12-18T12:26:13.089Z,98696.44
2022-12-18T12:31:04.836Z,98697.41
2022-12-18T12:36:01.979Z,98697.59
2022-12-18T12:41:33.875Z,98671.94
2022-12-18T12:46:27.556Z,98658.78
2022-12-18T12:51:29.294Z,98634.78
2022-12-18T12:56:22.728Z,98619.59
2022-12-18T13:01:24.285Z,98623.06
2022-12-18T13:06:44.986Z,98602.09
2022-12-18T13:12:00.003Z,98590.78
2022-12-18T13:16:52.607Z,98579.28
2022-12-18T13:21:54.728Z,98559.78
2022-12-18T13:26:46.843Z,98558.78
2022-12-18T13:31:42.359Z,98552.44
2022-12-18T13:36:35.301Z,98560.44
2022-12-18T13:41:30.179Z,98521.88
2022-12-18T13:46:42.984Z,98506.72
2022-12-18T13:51:35.874Z,98502.38
2022-12-18T13:56:30.763Z,98486.19
2022-12-18T14:01:24.252Z,98473.84
2022-12-18T14:06:17.666Z,98460.69
2022-12-18T14:11:22.091Z,98458.88
2022-12-18T14:16:17.744Z,98436.31
2022-12-18T14:21:19.157Z,98445.81
2022-12-18T14:26:30.241Z,98419.75
2022-12-18T14:31:24.918Z,98419.56
2022-12-18T14:36:24.579Z,98410.38
2022-12-18T14:41:18.409Z,98385.34
2022-12-18T14:46:39.527Z,98397.47
2022-12-18T14:51:34.346Z,98368.78
2022-12-18T14:56:27.575Z,98394.06
2022-12-18T15:01:26.295Z,98364.13
2022-12-18T15:06:25.775Z,98347.56
2022-12-18T15:11:28.173Z,98347.66
2022-12-18T15:16:19.962Z,98333.53
2022-12-18T15:21:17.432Z,98321.44
2022-12-18T15:26:11.496Z,98338.56
2022-12-18T15:31:10.163Z,98321.78
2022-12-18T15:36:11.040Z,98303.97
2022-12-18T15:41:03.232Z,98323.34
2022-12-18T15:45:54.921Z,98287.22
2022-12-18T15:50:46.972Z,98296.94
2022-12-18T15:56:00.969Z,98278.47
2022-12-18T16:01:00.208Z,98268.66
2022-12-18T16:05:51.810Z,98265.22
2022-12-18T16:10:43.618Z,98252.06
2022-12-18T16:15:35.291Z,98242.44
2022-12-18T16:20:27.064Z,98233.66
2022-12-18T16:25:20.545Z,98218.47
2022-12-18T16:30:16.937Z,98230.19
2022-12-18T16:35:14.853Z,98214.22
2022-12-18T16:40:09.904Z,98224.09
2022-12-18T16:45:01.526Z,98219.78
2022-12-18T16:49:53.393Z,98200.25
2022-12-18T16:54:45.079Z,98204.59
2022-12-18T16:59:36.927Z,98203.81
2022-12-18T17:04:28.671Z,98192.28
2022-12-18T17:09:25.568Z,98184.50
2022-12-18T17:14:20.376Z,98189.03
2022-12-18T17:19:17.092Z,98161.47
2022-12-18T17:24:09.606Z,98168.03
2022-12-18T17:29:01.596Z,98163.72
2022-12-18T17:33:53.772Z,98177.75
2022-12-18T17:38:54.291Z,98155.31
2022-12-18T17:43:51.890Z,98156.75
2022-12-18T17:48:43.635Z,98143.34
2022-12-18T17:53:35.196Z,98148.66
2022-12-18T17:58:30.584Z,98126.00
2022-12-18T18:03:22.493Z,98139.59
2022-12-18T18:08:14.313Z,98120.63
2022-12-18T18:13:26.604Z,98137.50
2022-12-18T18:18:19.572Z,98118.91
2022-12-18T18:23:13.607Z,98108.16
2022-12-18T18:28:05.455Z,98092.44
2022-12-18T18:32:57.055Z,98088.69
2022-12-18T18:37:49.344Z,98079.31
2022-12-18T18:42:43.019Z,98069.16
2022-12-18T18:47:34.657Z,98068.09
2022-12-18T18:52:26.279Z,98051.06
2022-12-18T18:57:20.705Z,98042.91
2022-12-18T19:02:14.893Z,98039.28
2022-12-18T19:07:07.808Z,98033.38
2022-12-18T19:12:18.432Z,98028.69
2022-12-18T19:17:10.375Z,98024.44
2022-12-18T19:22:02.173Z,97997.66
2022-12-18T19:26:54.167Z,98003.47
2022-12-18T19:31:50.158Z,97987.28
2022-12-18T19:36:42.136Z,98000.63
2022-12-18T19:41:34.027Z,97979.03
2022-12-18T19:46:26.868Z,97990.53
2022-12-18T19:51:24.950Z,97984.38
2022-12-18T19:56:19.349Z,97980.88
2022-12-18T20:01:12.753Z,97979.50
2022-12-18T20:06:26.814Z,97976.75
2022-12-18T20:11:18.624Z,97972.66
2022-12-18T20:16:10.838Z,97966.97
2022-12-18T20:21:03.429Z,97975.16
2022-12-18T20:25:56.121Z,97975.66
2022-12-18T20:30:48.037Z,97945.34
2022-12-18T20:35:39.667Z,97942.78
2022-12-18T20:40:32.073Z,97917.13
2022-12-18T20:45:23.795Z,97900.28
2022-12-18T20:50:15.458Z,97940.09
2022-12-18T20:55:07.589Z,97919.22
2022-12-18T20:59:59.234Z,97915.59
2022-12-18T21:04:50.848Z,97901.66
2022-12-18T21:09:42.476Z,97912.56
2022-12-18T21:14:34.420Z,97899.41
2022-12-18T21:19:27.488Z,97896.81
2022-12-18T21:24:19.912Z,97902.34
2022-12-18T21:29:17.544Z,97901.03
2022-12-18T21:34:14.863Z,97889.28
2022-12-18T21:39:06.529Z,97874.84
2022-12-18T21:44:07.445Z,97873.31
2022-12-18T21:48:59.154Z,97855.47
2022-12-18T21:53:50.842Z,97845.38
2022-12-18T21:58:55.378Z,97843.56
2022-12-18T22:03:49.140Z,97836.63
2022-12-18T22:08:43.618Z,97833.78
2022-12-18T22:13:35.620Z,97856.50
2022-12-18T22:18:27.488Z,97863.63
2022-12-18T22:23:19.125Z,97841.31
2022-12-18T22:28:29.624Z,97826.84
2022-12-18T22:33:21.251Z,97818.59
2022-12-18T22:38:12.887Z,97823.84
2022-12-18T22:43:04.574Z,97799.38
2022-12-18T22:47:56.419Z,97788.66
2022-12-18T22:52:48.025Z,97790.59
2022-12-18T22:57:40.642Z,97797.16
2022-12-18T23:02:37.821Z,97797.81
2022-12-18T23:07:29.625Z,97796.22
2022-12-18T23:12:21.439Z,97797.91
2022-12-18T23:17:13.533Z,97787.22
2022-12-18T23:22:11.371Z,97791.88
2022-12-18T23:27:03.319Z,97786.28
2022-12-18T23:31:58.400Z,97774.97
2022-12-18T23:36:53.270Z,97770.13
2022-12-18T23:41:47.652Z,97746.94
2022-12-18T23:46:39.536Z,97746.75
2022-12-18T23:51:32.086Z,97754.09
2022-12-18T23:56:26.765Z,97747.16
